RJOA/HIJ METAR and TAF weather

Enter ICAO airport designator
Station Type Date Time Source
RJOA METAR 2021/09/24 04:00 UTC NOAA

RJOA 240400Z 17004KT 100V210 9999 FEW035 BKN050 23/16 Q1021


Station Type Date Time Source
RJOA Decoded METAR 2021/09/24 04:00 UTC NOAA

Hiroshima Airport, Japan (RJOA) 34-26N 132-55E 334M
Sep 24, 2021 - 12:00 AM EDT / 2021.09.24 0400 UTC
Wind: from the S (170 degrees) at 5 MPH (4 KT) (direction variable):0
Visibility: greater than 7 mile(s):0
Sky conditions: mostly cloudy
Temperature: 73 F (23 C)
Dew Point: 60 F (16 C)
Relative Humidity: 64%
Pressure (altimeter): 30.15 in. Hg (1021 hPa)
ob: RJOA 240400Z 17004KT 100V210 9999 FEW035 BKN050 23/16 Q1021
cycle: 4

Station Type Date Time Source
RJOA TAF 2021/09/23 18:28 UTC NOAA

TAF RJOA 231710Z 2318/2500 30005KT 9999 FEW015
BECMG 2322/2400 14006KT

Example: see airport list